sensor_id;sensor_type;location;lat;lon;timestamp;pressure;altitude;pressure_sealevel;temperature;humidity
57827;BME280;43656;57.746;11.780;2023-06-05T00:00:41;102125.56;;;13.59;83.18
57827;BME280;43656;57.746;11.780;2023-06-05T00:03:06;102131.00;;;13.59;83.27
57827;BME280;43656;57.746;11.780;2023-06-05T00:05:32;102123.81;;;13.52;82.98
57827;BME280;43656;57.746;11.780;2023-06-05T00:07:57;102107.78;;;13.35;82.97
57827;BME280;43656;57.746;11.780;2023-06-05T00:10:23;102130.69;;;13.39;82.60
57827;BME280;43656;57.746;11.780;2023-06-05T00:12:49;102121.81;;;13.31;82.85
57827;BME280;43656;57.746;11.780;2023-06-05T00:15:15;102120.34;;;13.28;82.84
57827;BME280;43656;57.746;11.780;2023-06-05T00:17:40;102113.78;;;13.23;82.87
57827;BME280;43656;57.746;11.780;2023-06-05T00:20:07;102117.19;;;13.25;82.98
57827;BME280;43656;57.746;11.780;2023-06-05T00:22:35;102121.91;;;13.23;82.96
57827;BME280;43656;57.746;11.780;2023-06-05T00:25:01;102124.97;;;13.20;82.67
57827;BME280;43656;57.746;11.780;2023-06-05T00:27:27;102121.41;;;13.19;82.87
57827;BME280;43656;57.746;11.780;2023-06-05T00:29:53;102114.88;;;13.13;82.78
57827;BME280;43656;57.746;11.780;2023-06-05T00:32:19;102129.44;;;13.12;82.77
57827;BME280;43656;57.746;11.780;2023-06-05T00:34:44;102122.53;;;13.10;82.80
57827;BME280;43656;57.746;11.780;2023-06-05T00:37:10;102118.97;;;13.09;83.10
57827;BME280;43656;57.746;11.780;2023-06-05T00:39:36;102121.31;;;13.12;83.11
57827;BME280;43656;57.746;11.780;2023-06-05T00:42:02;102123.47;;;13.17;83.60
57827;BME280;43656;57.746;11.780;2023-06-05T00:44:27;102124.50;;;13.16;83.72
57827;BME280;43656;57.746;11.780;2023-06-05T00:46:53;102124.03;;;13.12;83.93
57827;BME280;43656;57.746;11.780;2023-06-05T00:49:19;102129.59;;;13.11;83.88
57827;BME280;43656;57.746;11.780;2023-06-05T00:51:46;102125.41;;;13.08;83.92
57827;BME280;43656;57.746;11.780;2023-06-05T00:54:12;102092.00;;;12.86;83.98
57827;BME280;43656;57.746;11.780;2023-06-05T00:56:40;102102.44;;;12.89;84.21
57827;BME280;43656;57.746;11.780;2023-06-05T00:59:07;102120.81;;;12.94;83.96
57827;BME280;43656;57.746;11.780;2023-06-05T01:01:33;102113.91;;;12.91;84.33
57827;BME280;43656;57.746;11.780;2023-06-05T01:04:00;102119.69;;;12.88;84.38
57827;BME280;43656;57.746;11.780;2023-06-05T01:06:26;102118.19;;;12.86;84.34
57827;BME280;43656;57.746;11.780;2023-06-05T01:08:53;102119.69;;;12.88;84.32
57827;BME280;43656;57.746;11.780;2023-06-05T01:14:24;102116.88;;;12.82;84.42
57827;BME280;43656;57.746;11.780;2023-06-05T01:16:53;102115.84;;;12.83;84.82
57827;BME280;43656;57.746;11.780;2023-06-05T01:19:20;102097.66;;;12.77;85.13
57827;BME280;43656;57.746;11.780;2023-06-05T01:21:48;102114.81;;;12.84;85.11
57827;BME280;43656;57.746;11.780;2023-06-05T01:24:14;102120.56;;;12.81;85.11
57827;BME280;43656;57.746;11.780;2023-06-05T01:26:53;102108.94;;;12.80;85.38
57827;BME280;43656;57.746;11.780;2023-06-05T01:30:05;102118.91;;;12.80;85.79
57827;BME280;43656;57.746;11.780;2023-06-05T01:33:08;102116.19;;;12.80;85.97
57827;BME280;43656;57.746;11.780;2023-06-05T01:35:37;102110.13;;;12.78;85.87
57827;BME280;43656;57.746;11.780;2023-06-05T01:38:06;102118.22;;;12.78;86.23
57827;BME280;43656;57.746;11.780;2023-06-05T01:40:33;102106.69;;;12.69;86.20
57827;BME280;43656;57.746;11.780;2023-06-05T01:43:01;102110.22;;;12.69;86.57
57827;BME280;43656;57.746;11.780;2023-06-05T01:45:28;102107.31;;;12.71;86.45
57827;BME280;43656;57.746;11.780;2023-06-05T01:47:55;102095.75;;;12.62;86.61
57827;BME280;43656;57.746;11.780;2023-06-05T01:50:22;102112.19;;;12.76;86.85
57827;BME280;43656;57.746;11.780;2023-06-05T01:52:48;102076.75;;;12.56;86.86
57827;BME280;43656;57.746;11.780;2023-06-05T01:55:16;102099.41;;;12.69;87.39
57827;BME280;43656;57.746;11.780;2023-06-05T01:57:43;102107.66;;;12.91;87.69
57827;BME280;43656;57.746;11.780;2023-06-05T02:00:10;102113.38;;;13.11;88.29
57827;BME280;43656;57.746;11.780;2023-06-05T02:02:39;102114.03;;;12.98;88.04
57827;BME280;43656;57.746;11.780;2023-06-05T02:05:09;102114.56;;;12.93;89.05
57827;BME280;43656;57.746;11.780;2023-06-05T02:07:39;102118.97;;;13.09;89.07
57827;BME280;43656;57.746;11.780;2023-06-05T02:10:07;102127.38;;;13.14;89.49
57827;BME280;43656;57.746;11.780;2023-06-05T02:12:32;102094.97;;;13.14;89.91
57827;BME280;43656;57.746;11.780;2023-06-05T02:15:01;102117.28;;;13.61;90.21
57827;BME280;43656;57.746;11.780;2023-06-05T02:17:26;102125.94;;;13.86;90.85
57827;BME280;43656;57.746;11.780;2023-06-05T02:19:52;102126.63;;;14.09;91.15
57827;BME280;43656;57.746;11.780;2023-06-05T02:22:18;102130.63;;;14.28;91.27
57827;BME280;43656;57.746;11.780;2023-06-05T02:24:44;102118.41;;;14.54;92.25
57827;BME280;43656;57.746;11.780;2023-06-05T02:27:10;102109.50;;;14.82;94.31
57827;BME280;43656;57.746;11.780;2023-06-05T02:29:38;102103.94;;;15.18;96.54
57827;BME280;43656;57.746;11.780;2023-06-05T02:32:05;102120.19;;;15.46;97.27
57827;BME280;43656;57.746;11.780;2023-06-05T02:34:31;102116.66;;;15.52;97.15
57827;BME280;43656;57.746;11.780;2023-06-05T02:37:00;102117.50;;;15.52;99.42
57827;BME280;43656;57.746;11.780;2023-06-05T02:39:26;102116.97;;;15.64;99.89
57827;BME280;43656;57.746;11.780;2023-06-05T02:41:53;102125.38;;;15.76;100.00
57827;BME280;43656;57.746;11.780;2023-06-05T02:44:20;102113.13;;;15.86;100.00
57827;BME280;43656;57.746;11.780;2023-06-05T02:46:46;102112.75;;;15.89;100.00
57827;BME280;43656;57.746;11.780;2023-06-05T02:49:11;102111.66;;;15.84;100.00
57827;BME280;43656;57.746;11.780;2023-06-05T02:51:37;102120.41;;;15.86;100.00
57827;BME280;43656;57.746;11.780;2023-06-05T02:54:02;102110.63;;;15.91;100.00
57827;BME280;43656;57.746;11.780;2023-06-05T02:56:28;102111.47;;;15.92;100.00
57827;BME280;43656;57.746;11.780;2023-06-05T02:58:54;102115.66;;;15.94;100.00
57827;BME280;43656;57.746;11.780;2023-06-05T03:01:22;102114.63;;;15.95;100.00
57827;BME280;43656;57.746;11.780;2023-06-05T03:03:47;102120.69;;;15.97;100.00
57827;BME280;43656;57.746;11.780;2023-06-05T03:06:18;102119.63;;;15.98;100.00
57827;BME280;43656;57.746;11.780;2023-06-05T03:08:44;102113.59;;;15.96;100.00
57827;BME280;43656;57.746;11.780;2023-06-05T03:11:10;102122.97;;;15.94;100.00
57827;BME280;43656;57.746;11.780;2023-06-05T03:13:35;102131.56;;;15.97;100.00
57827;BME280;43656;57.746;11.780;2023-06-05T03:16:02;102125.00;;;15.85;100.00
57827;BME280;43656;57.746;11.780;2023-06-05T03:18:28;102138.56;;;15.79;100.00
57827;BME280;43656;57.746;11.780;2023-06-05T03:20:54;102130.63;;;15.77;100.00
57827;BME280;43656;57.746;11.780;2023-06-05T03:23:27;102137.72;;;15.78;100.00
57827;BME280;43656;57.746;11.780;2023-06-05T03:25:53;102133.97;;;15.79;100.00
57827;BME280;43656;57.746;11.780;2023-06-05T03:28:20;102118.50;;;15.73;100.00
57827;BME280;43656;57.746;11.780;2023-06-05T03:30:46;102103.13;;;15.59;100.00
57827;BME280;43656;57.746;11.780;2023-06-05T03:33:12;102118.50;;;15.73;100.00
57827;BME280;43656;57.746;11.780;2023-06-05T03:35:42;102122.91;;;15.81;99.97
57827;BME280;43656;57.746;11.780;2023-06-05T03:38:09;102127.50;;;15.80;99.92
57827;BME280;43656;57.746;11.780;2023-06-05T03:40:35;102118.94;;;15.77;99.73
57827;BME280;43656;57.746;11.780;2023-06-05T03:43:00;102111.63;;;15.77;99.22
57827;BME280;43656;57.746;11.780;2023-06-05T03:45:26;102119.38;;;15.80;99.00
57827;BME280;43656;57.746;11.780;2023-06-05T03:47:53;102122.94;;;15.87;98.87
57827;BME280;43656;57.746;11.780;2023-06-05T03:50:20;102118.16;;;15.89;98.70
57827;BME280;43656;57.746;11.780;2023-06-05T03:52:46;102095.56;;;15.82;98.37
57827;BME280;43656;57.746;11.780;2023-06-05T03:55:18;102114.84;;;16.01;98.41
57827;BME280;43656;57.746;11.780;2023-06-05T03:57:44;102128.88;;;16.11;97.98
57827;BME280;43656;57.746;11.780;2023-06-05T04:00:09;102122.41;;;16.12;97.71
57827;BME280;43656;57.746;11.780;2023-06-05T04:02:36;102131.38;;;16.12;97.87
57827;BME280;43656;57.746;11.780;2023-06-05T04:05:03;102119.91;;;16.10;97.25
57827;BME280;43656;57.746;11.780;2023-06-05T04:07:29;102118.25;;;16.16;96.78
57827;BME280;43656;57.746;11.780;2023-06-05T04:09:55;102122.25;;;16.20;96.50
57827;BME280;43656;57.746;11.780;2023-06-05T04:12:21;102106.34;;;16.10;95.79
57827;BME280;43656;57.746;11.780;2023-06-05T04:14:46;102114.94;;;16.27;94.90
57827;BME280;43656;57.746;11.780;2023-06-05T04:17:12;102126.25;;;16.37;94.83
57827;BME280;43656;57.746;11.780;2023-06-05T04:19:39;102105.16;;;16.39;94.35
57827;BME280;43656;57.746;11.780;2023-06-05T04:22:05;102118.34;;;16.56;93.99
57827;BME280;43656;57.746;11.780;2023-06-05T04:24:31;102113.81;;;16.83;93.39
57827;BME280;43656;57.746;11.780;2023-06-05T04:26:57;102115.47;;;17.17;92.44
57827;BME280;43656;57.746;11.780;2023-06-05T04:29:26;102116.25;;;17.44;91.15
57827;BME280;43656;57.746;11.780;2023-06-05T04:31:51;102110.53;;;17.66;90.54
57827;BME280;43656;57.746;11.780;2023-06-05T04:34:16;102116.38;;;17.82;89.91
57827;BME280;43656;57.746;11.780;2023-06-05T04:36:44;102115.88;;;18.05;88.88
57827;BME280;43656;57.746;11.780;2023-06-05T04:39:10;102110.16;;;18.52;86.96
57827;BME280;43656;57.746;11.780;2023-06-05T04:41:42;102117.34;;;20.32;78.63
57827;BME280;43656;57.746;11.780;2023-06-05T04:44:15;102104.50;;;20.32;78.18
57827;BME280;43656;57.746;11.780;2023-06-05T04:46:44;102116.25;;;21.40;72.76
57827;BME280;43656;57.746;11.780;2023-06-05T04:49:11;102112.06;;;21.49;71.64
57827;BME280;43656;57.746;11.780;2023-06-05T04:51:37;102105.00;;;22.34;68.45
57827;BME280;43656;57.746;11.780;2023-06-05T04:54:03;102103.34;;;22.95;66.00
57827;BME280;43656;57.746;11.780;2023-06-05T04:56:28;102101.31;;;23.08;64.98
57827;BME280;43656;57.746;11.780;2023-06-05T04:58:54;102106.81;;;23.08;64.96
57827;BME280;43656;57.746;11.780;2023-06-05T05:01:20;102088.91;;;22.09;67.64
57827;BME280;43656;57.746;11.780;2023-06-05T05:03:45;102104.88;;;22.12;67.56
57827;BME280;43656;57.746;11.780;2023-06-05T05:06:14;102101.88;;;22.14;67.49
57827;BME280;43656;57.746;11.780;2023-06-05T05:08:40;102100.19;;;22.41;66.08
57827;BME280;43656;57.746;11.780;2023-06-05T05:11:05;102095.31;;;22.43;65.61
57827;BME280;43656;57.746;11.780;2023-06-05T05:13:31;102093.06;;;22.40;64.80
57827;BME280;43656;57.746;11.780;2023-06-05T05:15:56;102102.38;;;21.70;65.55
57827;BME280;43656;57.746;11.780;2023-06-05T05:18:21;102105.50;;;21.50;66.11
57827;BME280;43656;57.746;11.780;2023-06-05T05:20:47;102106.91;;;21.65;66.47
57827;BME280;43656;57.746;11.780;2023-06-05T05:23:14;102105.00;;;22.05;66.23
57827;BME280;43656;57.746;11.780;2023-06-05T05:25:39;102102.03;;;22.36;64.97
57827;BME280;43656;57.746;11.780;2023-06-05T05:28:05;102113.22;;;22.05;64.54
57827;BME280;43656;57.746;11.780;2023-06-05T05:30:31;102105.94;;;21.71;65.05
57827;BME280;43656;57.746;11.780;2023-06-05T05:32:58;102111.06;;;21.32;65.66
57827;BME280;43656;57.746;11.780;2023-06-05T05:35:23;102108.00;;;21.17;66.32
57827;BME280;43656;57.746;11.780;2023-06-05T05:37:48;102109.66;;;20.94;66.86
57827;BME280;43656;57.746;11.780;2023-06-05T05:40:14;102100.25;;;20.90;67.98
57827;BME280;43656;57.746;11.780;2023-06-05T05:42:41;102103.81;;;21.02;68.02
57827;BME280;43656;57.746;11.780;2023-06-05T05:45:07;102105.03;;;21.06;68.47
57827;BME280;43656;57.746;11.780;2023-06-05T05:47:33;102102.19;;;21.13;67.80
57827;BME280;43656;57.746;11.780;2023-06-05T05:49:58;102103.00;;;20.90;67.01
57827;BME280;43656;57.746;11.780;2023-06-05T05:52:24;102114.38;;;20.75;67.39
57827;BME280;43656;57.746;11.780;2023-06-05T05:54:50;102110.81;;;20.75;68.05
57827;BME280;43656;57.746;11.780;2023-06-05T05:57:17;102112.94;;;20.73;67.78
57827;BME280;43656;57.746;11.780;2023-06-05T05:59:42;102116.13;;;20.58;67.88
57827;BME280;43656;57.746;11.780;2023-06-05T06:02:10;102115.84;;;20.48;68.21
57827;BME280;43656;57.746;11.780;2023-06-05T06:04:38;102101.28;;;20.54;68.04
57827;BME280;43656;57.746;11.780;2023-06-05T06:07:03;102119.88;;;20.87;68.08
57827;BME280;43656;57.746;11.780;2023-06-05T06:09:30;102126.22;;;21.23;67.48
57827;BME280;43656;57.746;11.780;2023-06-05T06:11:56;102111.59;;;21.52;67.11
57827;BME280;43656;57.746;11.780;2023-06-05T06:14:22;102119.06;;;21.57;66.96
57827;BME280;43656;57.746;11.780;2023-06-05T06:16:48;102120.28;;;21.49;66.42
57827;BME280;43656;57.746;11.780;2023-06-05T06:19:15;102116.56;;;21.55;66.48
57827;BME280;43656;57.746;11.780;2023-06-05T06:21:42;102111.59;;;21.41;66.24
57827;BME280;43656;57.746;11.780;2023-06-05T06:24:08;102115.28;;;21.23;67.02
57827;BME280;43656;57.746;11.780;2023-06-05T06:26:34;102122.41;;;21.47;66.94
57827;BME280;43656;57.746;11.780;2023-06-05T06:29:04;102115.78;;;21.84;65.92
57827;BME280;43656;57.746;11.780;2023-06-05T06:31:29;102111.06;;;22.19;65.34
57827;BME280;43656;57.746;11.780;2023-06-05T06:33:55;102112.84;;;22.42;64.46
57827;BME280;43656;57.746;11.780;2023-06-05T06:36:20;102124.34;;;22.73;63.63
57827;BME280;43656;57.746;11.780;2023-06-05T06:38:46;102119.78;;;22.79;63.19
57827;BME280;43656;57.746;11.780;2023-06-05T06:41:11;102111.63;;;22.50;63.40
57827;BME280;43656;57.746;11.780;2023-06-05T06:43:37;102109.38;;;22.47;63.37
57827;BME280;43656;57.746;11.780;2023-06-05T06:46:03;102120.44;;;22.12;63.14
57827;BME280;43656;57.746;11.780;2023-06-05T06:48:29;102119.63;;;21.71;64.03
57827;BME280;43656;57.746;11.780;2023-06-05T06:50:55;102120.94;;;21.68;64.71
57827;BME280;43656;57.746;11.780;2023-06-05T06:53:21;102104.97;;;21.77;65.27
57827;BME280;43656;57.746;11.780;2023-06-05T06:55:46;102117.59;;;22.18;64.30
57827;BME280;43656;57.746;11.780;2023-06-05T06:58:11;102121.13;;;21.90;64.36
57827;BME280;43656;57.746;11.780;2023-06-05T07:00:37;102114.69;;;21.44;65.66
57827;BME280;43656;57.746;11.780;2023-06-05T07:03:03;102111.84;;;21.91;65.61
57827;BME280;43656;57.746;11.780;2023-06-05T07:05:29;102109.88;;;22.15;65.30
57827;BME280;43656;57.746;11.780;2023-06-05T07:07:54;102107.28;;;22.54;64.29
57827;BME280;43656;57.746;11.780;2023-06-05T07:10:20;102112.38;;;22.62;64.24
57827;BME280;43656;57.746;11.780;2023-06-05T07:12:46;102118.97;;;22.78;63.80
57827;BME280;43656;57.746;11.780;2023-06-05T07:15:11;102115.78;;;22.52;64.29
57827;BME280;43656;57.746;11.780;2023-06-05T07:17:36;102110.94;;;22.43;63.74
57827;BME280;43656;57.746;11.780;2023-06-05T07:20:02;102112.56;;;22.27;64.02
57827;BME280;43656;57.746;11.780;2023-06-05T07:22:30;102113.81;;;22.08;64.42
57827;BME280;43656;57.746;11.780;2023-06-05T07:24:56;102116.63;;;21.84;65.07
57827;BME280;43656;57.746;11.780;2023-06-05T07:27:21;102116.94;;;21.59;65.48
57827;BME280;43656;57.746;11.780;2023-06-05T07:29:47;102117.03;;;21.76;65.44
57827;BME280;43656;57.746;11.780;2023-06-05T07:32:13;102113.41;;;21.87;64.93
57827;BME280;43656;57.746;11.780;2023-06-05T07:34:38;102122.63;;;21.57;64.35
57827;BME280;43656;57.746;11.780;2023-06-05T07:37:04;102114.47;;;21.46;64.83
57827;BME280;43656;57.746;11.780;2023-06-05T07:39:32;102121.59;;;21.47;65.79
57827;BME280;43656;57.746;11.780;2023-06-05T07:41:58;102111.75;;;21.86;64.98
57827;BME280;43656;57.746;11.780;2023-06-05T07:44:23;102106.47;;;22.25;64.35
57827;BME280;43656;57.746;11.780;2023-06-05T07:46:50;102106.00;;;22.28;63.99
57827;BME280;43656;57.746;11.780;2023-06-05T07:49:15;102112.47;;;21.81;64.42
57827;BME280;43656;57.746;11.780;2023-06-05T07:51:42;102106.53;;;21.73;65.27
57827;BME280;43656;57.746;11.780;2023-06-05T07:54:12;102110.53;;;21.94;65.26
57827;BME280;43656;57.746;11.780;2023-06-05T07:56:39;102110.72;;;22.16;65.22
57827;BME280;43656;57.746;11.780;2023-06-05T07:59:06;102111.97;;;22.25;64.53
57827;BME280;43656;57.746;11.780;2023-06-05T08:01:35;102125.19;;;21.88;64.89
57827;BME280;43656;57.746;11.780;2023-06-05T08:04:05;102125.03;;;21.66;65.88
57827;BME280;43656;57.746;11.780;2023-06-05T08:06:31;102100.38;;;21.19;66.98
57827;BME280;43656;57.746;11.780;2023-06-05T08:09:01;102127.16;;;21.28;67.07
57827;BME280;43656;57.746;11.780;2023-06-05T08:11:27;102114.91;;;21.31;66.55
57827;BME280;43656;57.746;11.780;2023-06-05T08:13:57;102121.34;;;21.48;66.36
57827;BME280;43656;57.746;11.780;2023-06-05T08:16:22;102126.44;;;21.68;65.94
57827;BME280;43656;57.746;11.780;2023-06-05T08:18:48;102117.94;;;21.81;65.48
57827;BME280;43656;57.746;11.780;2023-06-05T08:21:13;102119.22;;;21.91;65.08
57827;BME280;43656;57.746;11.780;2023-06-05T08:23:39;102118.31;;;22.14;64.46
57827;BME280;43656;57.746;11.780;2023-06-05T08:26:04;102120.44;;;22.23;64.18
57827;BME280;43656;57.746;11.780;2023-06-05T08:28:39;102107.19;;;22.32;63.77
57827;BME280;43656;57.746;11.780;2023-06-05T08:31:06;102122.59;;;22.21;62.11
57827;BME280;43656;57.746;11.780;2023-06-05T08:33:33;102127.56;;;21.96;62.00
57827;BME280;43656;57.746;11.780;2023-06-05T08:35:58;102127.97;;;21.76;62.49
57827;BME280;43656;57.746;11.780;2023-06-05T08:38:24;102127.91;;;21.99;62.51
57827;BME280;43656;57.746;11.780;2023-06-05T08:40:56;102131.31;;;22.18;61.46
57827;BME280;43656;57.746;11.780;2023-06-05T08:43:23;102124.09;;;22.00;60.60
57827;BME280;43656;57.746;11.780;2023-06-05T08:45:51;102126.63;;;21.78;60.56
57827;BME280;43656;57.746;11.780;2023-06-05T08:48:19;102099.19;;;21.38;61.85
57827;BME280;43656;57.746;11.780;2023-06-05T08:50:47;102118.47;;;21.55;62.36
57827;BME280;43656;57.746;11.780;2023-06-05T08:53:16;102115.59;;;21.73;62.04
57827;BME280;43656;57.746;11.780;2023-06-05T08:55:43;102115.78;;;21.95;60.76
57827;BME280;43656;57.746;11.780;2023-06-05T08:58:14;102119.53;;;21.66;60.81
57827;BME280;43656;57.746;11.780;2023-06-05T09:00:40;102118.16;;;21.40;60.51
57827;BME280;43656;57.746;11.780;2023-06-05T09:03:06;102114.69;;;21.44;60.49
57827;BME280;43656;57.746;11.780;2023-06-05T09:05:32;102110.38;;;21.48;59.70
57827;BME280;43656;57.746;11.780;2023-06-05T09:07:58;102089.44;;;21.30;60.47
57827;BME280;43656;57.746;11.780;2023-06-05T09:10:26;102111.94;;;21.21;61.26
57827;BME280;43656;57.746;11.780;2023-06-05T09:13:00;102101.81;;;21.21;60.82
57827;BME280;43656;57.746;11.780;2023-06-05T09:15:30;102105.13;;;21.58;60.62
57827;BME280;43656;57.746;11.780;2023-06-05T09:18:12;102104.50;;;21.80;59.65
57827;BME280;43656;57.746;11.780;2023-06-05T09:20:44;102104.78;;;21.08;61.58
57827;BME280;43656;57.746;11.780;2023-06-05T09:23:28;102101.53;;;20.76;62.64
57827;BME280;43656;57.746;11.780;2023-06-05T09:25:58;102099.66;;;20.88;62.91
57827;BME280;43656;57.746;11.780;2023-06-05T09:28:24;102106.19;;;20.63;62.88
57827;BME280;43656;57.746;11.780;2023-06-05T09:30:53;102105.03;;;20.83;62.71
57827;BME280;43656;57.746;11.780;2023-06-05T09:33:23;102089.69;;;20.94;62.49
57827;BME280;43656;57.746;11.780;2023-06-05T09:38:31;102100.25;;;21.02;62.01
57827;BME280;43656;57.746;11.780;2023-06-05T09:41:04;102102.59;;;20.63;63.97
57827;BME280;43656;57.746;11.780;2023-06-05T09:43:29;102101.63;;;20.27;65.05
57827;BME280;43656;57.746;11.780;2023-06-05T09:45:55;102080.38;;;19.99;66.23
57827;BME280;43656;57.746;11.780;2023-06-05T09:48:20;102097.88;;;20.40;64.55
57827;BME280;43656;57.746;11.780;2023-06-05T09:50:46;102089.81;;;20.15;66.63
57827;BME280;43656;57.746;11.780;2023-06-05T09:53:14;102105.75;;;20.18;66.31
57827;BME280;43656;57.746;11.780;2023-06-05T09:55:41;102102.88;;;20.13;67.91
57827;BME280;43656;57.746;11.780;2023-06-05T09:58:11;102106.03;;;19.98;68.64
57827;BME280;43656;57.746;11.780;2023-06-05T10:00:40;102091.63;;;19.73;69.29
57827;BME280;43656;57.746;11.780;2023-06-05T10:03:17;102115.97;;;19.92;69.07
57827;BME280;43656;57.746;11.780;2023-06-05T10:05:44;102093.72;;;20.07;66.47
57827;BME280;43656;57.746;11.780;2023-06-05T10:08:12;102096.56;;;20.12;66.91
57827;BME280;43656;57.746;11.780;2023-06-05T10:10:39;102095.31;;;19.97;67.22
57827;BME280;43656;57.746;11.780;2023-06-05T10:13:04;102067.84;;;20.10;66.48
57827;BME280;43656;57.746;11.780;2023-06-05T10:15:31;102088.34;;;20.01;67.87
57827;BME280;43656;57.746;11.780;2023-06-05T10:17:57;102098.28;;;19.95;67.98
57827;BME280;43656;57.746;11.780;2023-06-05T10:20:23;102094.28;;;19.98;68.27
57827;BME280;43656;57.746;11.780;2023-06-05T10:22:49;102079.63;;;19.92;69.16
57827;BME280;43656;57.746;11.780;2023-06-05T10:25:17;102103.41;;;20.03;68.92
57827;BME280;43656;57.746;11.780;2023-06-05T10:34:03;102097.22;;;20.26;68.28
57827;BME280;43656;57.746;11.780;2023-06-05T10:39:06;102094.53;;;20.38;66.99
57827;BME280;43656;57.746;11.780;2023-06-05T10:41:32;102091.66;;;20.33;67.58
57827;BME280;43656;57.746;11.780;2023-06-05T10:43:58;102085.56;;;20.19;69.30
57827;BME280;43656;57.746;11.780;2023-06-05T10:54:04;102084.97;;;20.17;71.20
57827;BME280;43656;57.746;11.780;2023-06-05T10:59:33;102087.00;;;20.22;71.55
57827;BME280;43656;57.746;11.780;2023-06-05T11:10:05;102081.69;;;20.27;70.82
57827;BME280;43656;57.746;11.780;2023-06-05T11:15:00;102086.22;;;20.45;69.69
57827;BME280;43656;57.746;11.780;2023-06-05T11:17:36;102081.13;;;20.48;69.33
57827;BME280;43656;57.746;11.780;2023-06-05T11:20:06;102078.47;;;20.30;70.16
57827;BME280;43656;57.746;11.780;2023-06-05T11:28:03;102075.75;;;20.41;70.42
57827;BME280;43656;57.746;11.780;2023-06-05T11:30:45;102070.97;;;20.25;70.05
57827;BME280;43656;57.746;11.780;2023-06-05T11:33:12;102074.16;;;20.22;70.82
57827;BME280;43656;57.746;11.780;2023-06-05T11:35:40;102073.69;;;20.25;70.83
57827;BME280;43656;57.746;11.780;2023-06-05T11:38:14;102070.28;;;20.30;70.47
57827;BME280;43656;57.746;11.780;2023-06-05T11:40:41;102070.44;;;20.47;70.84
57827;BME280;43656;57.746;11.780;2023-06-05T11:43:09;102072.03;;;20.54;70.43
57827;BME280;43656;57.746;11.780;2023-06-05T11:45:39;102068.81;;;20.57;69.79
57827;BME280;43656;57.746;11.780;2023-06-05T11:48:12;102062.34;;;20.40;71.15
57827;BME280;43656;57.746;11.780;2023-06-05T11:51:00;102065.03;;;20.70;70.64
57827;BME280;43656;57.746;11.780;2023-06-05T11:53:27;102071.44;;;20.64;70.73
57827;BME280;43656;57.746;11.780;2023-06-05T11:55:54;102063.00;;;20.65;70.11
57827;BME280;43656;57.746;11.780;2023-06-05T11:58:35;102067.78;;;20.70;69.75
57827;BME280;43656;57.746;11.780;2023-06-05T12:03:29;102068.25;;;20.79;69.66
57827;BME280;43656;57.746;11.780;2023-06-05T12:05:55;102063.00;;;20.89;69.62
57827;BME280;43656;57.746;11.780;2023-06-05T12:08:21;102065.63;;;20.84;69.71
57827;BME280;43656;57.746;11.780;2023-06-05T12:10:47;102063.38;;;20.81;69.48
57827;BME280;43656;57.746;11.780;2023-06-05T12:13:12;102059.34;;;20.83;69.50
57827;BME280;43656;57.746;11.780;2023-06-05T12:15:38;102059.47;;;20.77;69.48
57827;BME280;43656;57.746;11.780;2023-06-05T12:18:04;102063.59;;;20.79;70.04
57827;BME280;43656;57.746;11.780;2023-06-05T12:20:37;102059.22;;;20.90;69.35
57827;BME280;43656;57.746;11.780;2023-06-05T12:23:03;102053.72;;;20.78;70.42
57827;BME280;43656;57.746;11.780;2023-06-05T12:25:29;102055.03;;;20.76;70.66
57827;BME280;43656;57.746;11.780;2023-06-05T12:27:54;102053.13;;;20.64;70.32
57827;BME280;43656;57.746;11.780;2023-06-05T12:30:20;102052.88;;;20.66;69.75
57827;BME280;43656;57.746;11.780;2023-06-05T12:32:47;102055.88;;;20.64;70.68
57827;BME280;43656;57.746;11.780;2023-06-05T12:35:23;102055.75;;;20.71;70.34
57827;BME280;43656;57.746;11.780;2023-06-05T12:37:50;102052.88;;;20.66;71.30
57827;BME280;43656;57.746;11.780;2023-06-05T12:40:16;102048.38;;;20.72;70.95
57827;BME280;43656;57.746;11.780;2023-06-05T12:42:51;102052.19;;;20.71;71.11
57827;BME280;43656;57.746;11.780;2023-06-05T12:45:16;102045.03;;;20.58;71.06
57827;BME280;43656;57.746;11.780;2023-06-05T12:47:42;102049.81;;;20.74;71.74
57827;BME280;43656;57.746;11.780;2023-06-05T12:50:10;102047.56;;;20.83;70.75
57827;BME280;43656;57.746;11.780;2023-06-05T12:52:39;102033.91;;;20.83;72.80
57827;BME280;43656;57.746;11.780;2023-06-05T12:55:05;102037.44;;;20.72;74.47
57827;BME280;43656;57.746;11.780;2023-06-05T12:57:32;102036.97;;;20.75;74.92
57827;BME280;43656;57.746;11.780;2023-06-05T13:00:02;102037.22;;;20.73;76.38
57827;BME280;43656;57.746;11.780;2023-06-05T13:02:35;102036.97;;;20.63;76.72
57827;BME280;43656;57.746;11.780;2023-06-05T13:05:01;102016.41;;;20.60;76.66
57827;BME280;43656;57.746;11.780;2023-06-05T13:07:28;102027.44;;;20.65;75.29
57827;BME280;43656;57.746;11.780;2023-06-05T13:09:54;102023.75;;;20.72;75.68
57827;BME280;43656;57.746;11.780;2023-06-05T13:12:20;102032.06;;;20.65;76.14
57827;BME280;43656;57.746;11.780;2023-06-05T13:14:46;102007.56;;;20.47;77.32
57827;BME280;43656;57.746;11.780;2023-06-05T13:17:11;102027.81;;;20.57;76.83
57827;BME280;43656;57.746;11.780;2023-06-05T13:19:37;102028.50;;;20.64;76.52
57827;BME280;43656;57.746;11.780;2023-06-05T13:22:02;102027.56;;;20.59;77.92
57827;BME280;43656;57.746;11.780;2023-06-05T13:24:28;102028.38;;;20.59;78.09